sensor_id;sensor_type;location;lat;lon;timestamp;temperature;humidity
51035;DHT22;37062;52.546;13.230;2022-12-07T00:01:04;6.30;99.90
51035;DHT22;37062;52.546;13.230;2022-12-07T00:03:32;6.30;99.90
51035;DHT22;37062;52.546;13.230;2022-12-07T00:05:59;6.40;99.90
51035;DHT22;37062;52.546;13.230;2022-12-07T00:08:26;6.40;99.90
51035;DHT22;37062;52.546;13.230;2022-12-07T00:10:55;6.40;99.90
51035;DHT22;37062;52.546;13.230;2022-12-07T00:13:22;6.40;99.90
51035;DHT22;37062;52.546;13.230;2022-12-07T00:15:49;6.40;99.90
51035;DHT22;37062;52.546;13.230;2022-12-07T00:18:16;6.30;99.90
51035;DHT22;37062;52.546;13.230;2022-12-07T00:20:43;6.40;99.90
51035;DHT22;37062;52.546;13.230;2022-12-07T00:23:10;6.30;99.90
51035;DHT22;37062;52.546;13.230;2022-12-07T00:25:37;6.30;99.90
51035;DHT22;37062;52.546;13.230;2022-12-07T00:28:05;6.20;99.90
51035;DHT22;37062;52.546;13.230;2022-12-07T00:30:35;6.20;99.90
51035;DHT22;37062;52.546;13.230;2022-12-07T00:33:02;6.20;99.90
51035;DHT22;37062;52.546;13.230;2022-12-07T00:35:29;6.10;99.90
51035;DHT22;37062;52.546;13.230;2022-12-07T00:37:57;6.10;99.90
51035;DHT22;37062;52.546;13.230;2022-12-07T00:40:24;6.10;99.90
51035;DHT22;37062;52.546;13.230;2022-12-07T00:42:51;6.00;99.90
51035;DHT22;37062;52.546;13.230;2022-12-07T00:45:19;6.00;99.90
51035;DHT22;37062;52.546;13.230;2022-12-07T00:47:46;5.90;99.90
51035;DHT22;37062;52.546;13.230;2022-12-07T00:50:13;5.90;99.90
51035;DHT22;37062;52.546;13.230;2022-12-07T00:52:41;5.90;99.90
51035;DHT22;37062;52.546;13.230;2022-12-07T00:55:08;5.90;99.90
51035;DHT22;37062;52.546;13.230;2022-12-07T00:57:35;6.00;99.90
51035;DHT22;37062;52.546;13.230;2022-12-07T01:00:04;6.00;99.90
51035;DHT22;37062;52.546;13.230;2022-12-07T01:02:33;6.00;99.90
51035;DHT22;37062;52.546;13.230;2022-12-07T01:05:00;6.00;99.90
51035;DHT22;37062;52.546;13.230;2022-12-07T01:07:27;6.00;99.90
51035;DHT22;37062;52.546;13.230;2022-12-07T01:09:54;6.00;99.90
51035;DHT22;37062;52.546;13.230;2022-12-07T01:12:21;6.00;99.90
51035;DHT22;37062;52.546;13.230;2022-12-07T01:14:48;6.00;99.90
51035;DHT22;37062;52.546;13.230;2022-12-07T01:17:15;6.00;99.90
51035;DHT22;37062;52.546;13.230;2022-12-07T01:19:44;6.10;99.90
51035;DHT22;37062;52.546;13.230;2022-12-07T01:22:11;6.10;99.90
51035;DHT22;37062;52.546;13.230;2022-12-07T01:24:38;6.10;99.90
51035;DHT22;37062;52.546;13.230;2022-12-07T01:27:05;6.10;99.90
51035;DHT22;37062;52.546;13.230;2022-12-07T01:29:32;6.00;99.90
51035;DHT22;37062;52.546;13.230;2022-12-07T01:31:59;6.00;99.90
51035;DHT22;37062;52.546;13.230;2022-12-07T01:34:26;6.00;99.90
51035;DHT22;37062;52.546;13.230;2022-12-07T01:36:55;6.00;99.90
51035;DHT22;37062;52.546;13.230;2022-12-07T01:39:22;6.00;99.90
51035;DHT22;37062;52.546;13.230;2022-12-07T01:41:49;6.00;99.90
51035;DHT22;37062;52.546;13.230;2022-12-07T01:44:21;6.00;99.90
51035;DHT22;37062;52.546;13.230;2022-12-07T01:46:50;5.90;99.90
51035;DHT22;37062;52.546;13.230;2022-12-07T01:49:26;5.90;99.90
51035;DHT22;37062;52.546;13.230;2022-12-07T01:52:03;6.00;99.90
51035;DHT22;37062;52.546;13.230;2022-12-07T01:54:33;5.90;99.90
51035;DHT22;37062;52.546;13.230;2022-12-07T01:57:01;5.90;99.90
51035;DHT22;37062;52.546;13.230;2022-12-07T01:59:28;5.90;99.90
51035;DHT22;37062;52.546;13.230;2022-12-07T02:01:56;5.80;99.90
51035;DHT22;37062;52.546;13.230;2022-12-07T02:04:23;5.80;99.90
51035;DHT22;37062;52.546;13.230;2022-12-07T02:06:50;5.80;99.90
51035;DHT22;37062;52.546;13.230;2022-12-07T02:09:19;5.70;99.90
51035;DHT22;37062;52.546;13.230;2022-12-07T02:11:47;5.70;99.90
51035;DHT22;37062;52.546;13.230;2022-12-07T02:14:14;5.70;99.90
51035;DHT22;37062;52.546;13.230;2022-12-07T02:16:49;5.60;99.90
51035;DHT22;37062;52.546;13.230;2022-12-07T02:19:37;5.60;99.90
51035;DHT22;37062;52.546;13.230;2022-12-07T02:22:17;5.50;99.90
51035;DHT22;37062;52.546;13.230;2022-12-07T02:24:53;5.50;99.90
51035;DHT22;37062;52.546;13.230;2022-12-07T02:27:38;5.50;99.90
51035;DHT22;37062;52.546;13.230;2022-12-07T02:30:08;5.40;99.90
51035;DHT22;37062;52.546;13.230;2022-12-07T02:32:43;5.40;99.90
51035;DHT22;37062;52.546;13.230;2022-12-07T02:35:15;5.40;99.90
51035;DHT22;37062;52.546;13.230;2022-12-07T02:37:55;5.40;99.90
51035;DHT22;37062;52.546;13.230;2022-12-07T02:40:28;5.40;99.90
51035;DHT22;37062;52.546;13.230;2022-12-07T02:43:02;5.30;99.90
51035;DHT22;37062;52.546;13.230;2022-12-07T02:45:35;5.30;99.90
51035;DHT22;37062;52.546;13.230;2022-12-07T02:48:07;5.30;99.90
51035;DHT22;37062;52.546;13.230;2022-12-07T02:50:35;5.30;99.90
51035;DHT22;37062;52.546;13.230;2022-12-07T02:53:04;5.20;99.90
51035;DHT22;37062;52.546;13.230;2022-12-07T02:55:36;5.20;99.90
51035;DHT22;37062;52.546;13.230;2022-12-07T02:58:23;5.30;99.90
51035;DHT22;37062;52.546;13.230;2022-12-07T03:00:59;5.30;99.90
51035;DHT22;37062;52.546;13.230;2022-12-07T03:03:33;5.30;99.90
51035;DHT22;37062;52.546;13.230;2022-12-07T03:06:08;5.30;99.90
51035;DHT22;37062;52.546;13.230;2022-12-07T03:08:49;5.30;99.90
51035;DHT22;37062;52.546;13.230;2022-12-07T03:11:23;5.30;99.90
51035;DHT22;37062;52.546;13.230;2022-12-07T03:13:58;5.30;99.90
51035;DHT22;37062;52.546;13.230;2022-12-07T03:16:31;5.20;99.90
51035;DHT22;37062;52.546;13.230;2022-12-07T03:19:02;5.30;99.90
51035;DHT22;37062;52.546;13.230;2022-12-07T03:21:32;5.40;99.90
51035;DHT22;37062;52.546;13.230;2022-12-07T03:24:04;5.40;99.90
51035;DHT22;37062;52.546;13.230;2022-12-07T03:26:35;5.40;99.90
51035;DHT22;37062;52.546;13.230;2022-12-07T03:29:13;5.40;99.90
51035;DHT22;37062;52.546;13.230;2022-12-07T03:31:46;5.40;99.90
51035;DHT22;37062;52.546;13.230;2022-12-07T03:34:16;5.50;99.90
51035;DHT22;37062;52.546;13.230;2022-12-07T03:36:47;5.40;99.90
51035;DHT22;37062;52.546;13.230;2022-12-07T03:39:22;5.40;99.90
51035;DHT22;37062;52.546;13.230;2022-12-07T03:41:51;5.50;99.90
51035;DHT22;37062;52.546;13.230;2022-12-07T03:44:20;5.50;99.90
51035;DHT22;37062;52.546;13.230;2022-12-07T03:46:55;5.50;99.90
51035;DHT22;37062;52.546;13.230;2022-12-07T03:49:27;5.50;99.90
51035;DHT22;37062;52.546;13.230;2022-12-07T03:52:02;5.50;99.90
51035;DHT22;37062;52.546;13.230;2022-12-07T03:54:32;5.50;99.90
51035;DHT22;37062;52.546;13.230;2022-12-07T03:57:05;5.50;99.90
51035;DHT22;37062;52.546;13.230;2022-12-07T03:59:34;5.40;99.90
51035;DHT22;37062;52.546;13.230;2022-12-07T04:02:04;5.40;99.90
51035;DHT22;37062;52.546;13.230;2022-12-07T04:04:33;5.40;99.90
51035;DHT22;37062;52.546;13.230;2022-12-07T04:07:00;5.50;99.90
51035;DHT22;37062;52.546;13.230;2022-12-07T04:09:28;5.50;99.90
51035;DHT22;37062;52.546;13.230;2022-12-07T04:11:55;5.50;99.90
51035;DHT22;37062;52.546;13.230;2022-12-07T04:14:22;5.60;99.90
51035;DHT22;37062;52.546;13.230;2022-12-07T04:16:51;5.60;99.90
51035;DHT22;37062;52.546;13.230;2022-12-07T04:19:23;5.50;99.90
51035;DHT22;37062;52.546;13.230;2022-12-07T04:21:50;5.50;99.90
51035;DHT22;37062;52.546;13.230;2022-12-07T04:24:18;5.50;99.90
51035;DHT22;37062;52.546;13.230;2022-12-07T04:26:46;5.50;99.90
51035;DHT22;37062;52.546;13.230;2022-12-07T04:29:14;5.50;99.90
51035;DHT22;37062;52.546;13.230;2022-12-07T04:31:42;5.50;99.90
51035;DHT22;37062;52.546;13.230;2022-12-07T04:34:09;5.40;99.90
51035;DHT22;37062;52.546;13.230;2022-12-07T04:36:38;5.40;99.90
51035;DHT22;37062;52.546;13.230;2022-12-07T04:39:07;5.40;99.90
51035;DHT22;37062;52.546;13.230;2022-12-07T04:41:34;5.40;99.90
51035;DHT22;37062;52.546;13.230;2022-12-07T04:44:03;5.40;99.90
51035;DHT22;37062;52.546;13.230;2022-12-07T04:46:33;5.50;99.90
51035;DHT22;37062;52.546;13.230;2022-12-07T04:49:00;5.50;99.90
51035;DHT22;37062;52.546;13.230;2022-12-07T04:51:28;5.60;99.90
51035;DHT22;37062;52.546;13.230;2022-12-07T04:53:57;5.60;99.90
51035;DHT22;37062;52.546;13.230;2022-12-07T04:56:25;5.60;99.90
51035;DHT22;37062;52.546;13.230;2022-12-07T04:58:53;5.60;99.90
51035;DHT22;37062;52.546;13.230;2022-12-07T05:01:22;5.60;99.90
51035;DHT22;37062;52.546;13.230;2022-12-07T05:03:49;5.60;99.90
51035;DHT22;37062;52.546;13.230;2022-12-07T05:06:19;5.60;99.90
51035;DHT22;37062;52.546;13.230;2022-12-07T05:08:47;5.60;99.90
51035;DHT22;37062;52.546;13.230;2022-12-07T05:11:16;5.70;99.90
51035;DHT22;37062;52.546;13.230;2022-12-07T05:13:57;5.70;99.90
51035;DHT22;37062;52.546;13.230;2022-12-07T05:16:24;5.70;99.90
51035;DHT22;37062;52.546;13.230;2022-12-07T05:18:51;5.70;99.90
51035;DHT22;37062;52.546;13.230;2022-12-07T05:21:22;5.70;99.90
51035;DHT22;37062;52.546;13.230;2022-12-07T05:23:49;5.70;99.90
51035;DHT22;37062;52.546;13.230;2022-12-07T05:26:18;5.80;99.90
51035;DHT22;37062;52.546;13.230;2022-12-07T05:28:45;5.70;99.90
51035;DHT22;37062;52.546;13.230;2022-12-07T05:31:12;5.80;99.90
51035;DHT22;37062;52.546;13.230;2022-12-07T05:33:39;5.90;99.90
51035;DHT22;37062;52.546;13.230;2022-12-07T05:36:06;5.90;99.90
51035;DHT22;37062;52.546;13.230;2022-12-07T05:38:33;5.90;99.90
51035;DHT22;37062;52.546;13.230;2022-12-07T05:41:01;6.00;99.90
51035;DHT22;37062;52.546;13.230;2022-12-07T05:43:30;6.00;99.90
51035;DHT22;37062;52.546;13.230;2022-12-07T05:45:58;6.00;99.90
51035;DHT22;37062;52.546;13.230;2022-12-07T05:48:25;6.00;99.90
51035;DHT22;37062;52.546;13.230;2022-12-07T05:50:52;6.10;99.90
51035;DHT22;37062;52.546;13.230;2022-12-07T05:53:20;6.20;99.90
51035;DHT22;37062;52.546;13.230;2022-12-07T05:55:47;6.20;99.90
51035;DHT22;37062;52.546;13.230;2022-12-07T05:58:14;6.20;99.90
51035;DHT22;37062;52.546;13.230;2022-12-07T06:00:59;6.20;99.90
51035;DHT22;37062;52.546;13.230;2022-12-07T06:03:26;6.20;99.90
51035;DHT22;37062;52.546;13.230;2022-12-07T06:05:53;6.20;99.90
51035;DHT22;37062;52.546;13.230;2022-12-07T06:08:21;6.30;99.90
51035;DHT22;37062;52.546;13.230;2022-12-07T06:10:48;6.40;99.90
51035;DHT22;37062;52.546;13.230;2022-12-07T06:13:37;6.30;99.90
51035;DHT22;37062;52.546;13.230;2022-12-07T06:16:06;6.30;99.90
51035;DHT22;37062;52.546;13.230;2022-12-07T06:18:33;6.30;99.90
51035;DHT22;37062;52.546;13.230;2022-12-07T06:21:00;6.40;99.90
51035;DHT22;37062;52.546;13.230;2022-12-07T06:23:27;6.40;99.90
51035;DHT22;37062;52.546;13.230;2022-12-07T06:25:55;6.40;99.90
51035;DHT22;37062;52.546;13.230;2022-12-07T06:28:22;6.40;99.90
51035;DHT22;37062;52.546;13.230;2022-12-07T06:30:57;6.40;99.90
51035;DHT22;37062;52.546;13.230;2022-12-07T06:33:25;6.40;99.90
51035;DHT22;37062;52.546;13.230;2022-12-07T06:35:53;6.40;99.90
51035;DHT22;37062;52.546;13.230;2022-12-07T06:38:20;6.40;99.90
51035;DHT22;37062;52.546;13.230;2022-12-07T06:40:47;6.50;99.90
51035;DHT22;37062;52.546;13.230;2022-12-07T06:43:14;6.50;99.90
51035;DHT22;37062;52.546;13.230;2022-12-07T06:45:42;6.50;99.90
51035;DHT22;37062;52.546;13.230;2022-12-07T06:48:09;6.50;99.90
51035;DHT22;37062;52.546;13.230;2022-12-07T06:50:38;6.50;99.90
51035;DHT22;37062;52.546;13.230;2022-12-07T06:53:05;6.50;99.90
51035;DHT22;37062;52.546;13.230;2022-12-07T06:55:32;6.50;99.90
51035;DHT22;37062;52.546;13.230;2022-12-07T06:57:59;6.60;99.90
51035;DHT22;37062;52.546;13.230;2022-12-07T07:00:27;6.50;99.90
51035;DHT22;37062;52.546;13.230;2022-12-07T07:02:54;6.60;99.90
51035;DHT22;37062;52.546;13.230;2022-12-07T07:05:22;6.60;99.90
51035;DHT22;37062;52.546;13.230;2022-12-07T07:08:01;6.60;99.90
51035;DHT22;37062;52.546;13.230;2022-12-07T07:10:31;6.60;99.90
51035;DHT22;37062;52.546;13.230;2022-12-07T07:13:01;6.60;99.90
51035;DHT22;37062;52.546;13.230;2022-12-07T07:15:29;6.60;99.90
51035;DHT22;37062;52.546;13.230;2022-12-07T07:17:56;6.60;99.90
51035;DHT22;37062;52.546;13.230;2022-12-07T07:20:23;6.60;99.90
51035;DHT22;37062;52.546;13.230;2022-12-07T07:22:51;6.70;99.90
51035;DHT22;37062;52.546;13.230;2022-12-07T07:25:22;6.70;99.90
51035;DHT22;37062;52.546;13.230;2022-12-07T07:27:49;6.70;99.90
51035;DHT22;37062;52.546;13.230;2022-12-07T07:30:18;6.70;99.90
51035;DHT22;37062;52.546;13.230;2022-12-07T07:32:45;6.70;99.90
51035;DHT22;37062;52.546;13.230;2022-12-07T07:35:12;6.60;99.90
51035;DHT22;37062;52.546;13.230;2022-12-07T07:37:40;6.60;99.90
51035;DHT22;37062;52.546;13.230;2022-12-07T07:40:08;6.60;99.90
51035;DHT22;37062;52.546;13.230;2022-12-07T07:42:36;6.40;99.90
51035;DHT22;37062;52.546;13.230;2022-12-07T07:45:04;6.30;99.90
51035;DHT22;37062;52.546;13.230;2022-12-07T07:47:31;6.30;99.90
51035;DHT22;37062;52.546;13.230;2022-12-07T07:49:58;6.30;99.90
51035;DHT22;37062;52.546;13.230;2022-12-07T07:52:25;6.30;99.90
51035;DHT22;37062;52.546;13.230;2022-12-07T07:54:53;6.30;99.90
51035;DHT22;37062;52.546;13.230;2022-12-07T07:57:20;6.40;99.90
51035;DHT22;37062;52.546;13.230;2022-12-07T07:59:52;6.50;99.90
51035;DHT22;37062;52.546;13.230;2022-12-07T08:02:21;6.60;99.90
51035;DHT22;37062;52.546;13.230;2022-12-07T08:04:51;6.60;99.90
51035;DHT22;37062;52.546;13.230;2022-12-07T08:07:18;6.70;99.90
51035;DHT22;37062;52.546;13.230;2022-12-07T08:09:45;6.70;99.90
51035;DHT22;37062;52.546;13.230;2022-12-07T08:12:12;6.70;99.90
51035;DHT22;37062;52.546;13.230;2022-12-07T08:14:39;6.80;99.90
51035;DHT22;37062;52.546;13.230;2022-12-07T08:17:08;6.80;99.90
51035;DHT22;37062;52.546;13.230;2022-12-07T08:19:35;6.80;99.90
51035;DHT22;37062;52.546;13.230;2022-12-07T08:22:02;6.80;99.90
51035;DHT22;37062;52.546;13.230;2022-12-07T08:24:29;6.80;99.90
51035;DHT22;37062;52.546;13.230;2022-12-07T08:26:56;6.90;99.90
51035;DHT22;37062;52.546;13.230;2022-12-07T08:29:23;6.90;99.90
51035;DHT22;37062;52.546;13.230;2022-12-07T08:31:50;6.80;99.90
51035;DHT22;37062;52.546;13.230;2022-12-07T08:34:19;6.70;99.90
51035;DHT22;37062;52.546;13.230;2022-12-07T08:36:46;6.70;99.90
51035;DHT22;37062;52.546;13.230;2022-12-07T08:39:13;6.60;99.90
51035;DHT22;37062;52.546;13.230;2022-12-07T08:41:40;6.60;99.90
51035;DHT22;37062;52.546;13.230;2022-12-07T08:44:07;6.60;99.90
51035;DHT22;37062;52.546;13.230;2022-12-07T08:46:36;6.60;99.90
51035;DHT22;37062;52.546;13.230;2022-12-07T08:49:06;6.60;99.90
51035;DHT22;37062;52.546;13.230;2022-12-07T08:51:37;6.50;99.90
51035;DHT22;37062;52.546;13.230;2022-12-07T08:54:09;6.50;99.90
51035;DHT22;37062;52.546;13.230;2022-12-07T08:56:37;6.50;99.90
51035;DHT22;37062;52.546;13.230;2022-12-07T08:59:06;6.60;99.90
51035;DHT22;37062;52.546;13.230;2022-12-07T09:01:33;6.60;99.90
51035;DHT22;37062;52.546;13.230;2022-12-07T09:04:00;6.60;99.90
51035;DHT22;37062;52.546;13.230;2022-12-07T09:06:28;6.60;99.90
51035;DHT22;37062;52.546;13.230;2022-12-07T09:08:58;6.50;99.90
51035;DHT22;37062;52.546;13.230;2022-12-07T09:11:27;6.40;99.90
51035;DHT22;37062;52.546;13.230;2022-12-07T09:13:54;6.30;99.90
51035;DHT22;37062;52.546;13.230;2022-12-07T09:16:21;6.20;99.90
51035;DHT22;37062;52.546;13.230;2022-12-07T09:18:48;6.20;99.90
51035;DHT22;37062;52.546;13.230;2022-12-07T09:21:15;6.30;99.90
51035;DHT22;37062;52.546;13.230;2022-12-07T09:23:43;6.30;99.90
51035;DHT22;37062;52.546;13.230;2022-12-07T09:26:11;6.30;99.90
51035;DHT22;37062;52.546;13.230;2022-12-07T09:28:39;6.30;99.90
51035;DHT22;37062;52.546;13.230;2022-12-07T09:31:06;6.30;99.90
51035;DHT22;37062;52.546;13.230;2022-12-07T09:33:33;6.20;99.90
51035;DHT22;37062;52.546;13.230;2022-12-07T09:36:00;6.20;99.90
51035;DHT22;37062;52.546;13.230;2022-12-07T09:38:28;6.30;99.90
51035;DHT22;37062;52.546;13.230;2022-12-07T09:40:55;6.20;99.90
51035;DHT22;37062;52.546;13.230;2022-12-07T09:43:25;6.20;99.90
51035;DHT22;37062;52.546;13.230;2022-12-07T09:45:54;6.10;99.90
51035;DHT22;37062;52.546;13.230;2022-12-07T09:48:25;6.00;99.90
51035;DHT22;37062;52.546;13.230;2022-12-07T09:50:56;5.90;99.90
51035;DHT22;37062;52.546;13.230;2022-12-07T09:53:27;6.00;99.90
51035;DHT22;37062;52.546;13.230;2022-12-07T09:55:55;6.00;99.90
51035;DHT22;37062;52.546;13.230;2022-12-07T09:58:25;6.00;99.90
51035;DHT22;37062;52.546;13.230;2022-12-07T10:00:55;6.00;99.90
51035;DHT22;37062;52.546;13.230;2022-12-07T10:03:22;6.00;99.90
51035;DHT22;37062;52.546;13.230;2022-12-07T10:05:51;6.10;99.90
51035;DHT22;37062;52.546;13.230;2022-12-07T10:08:18;6.10;99.90
51035;DHT22;37062;52.546;13.230;2022-12-07T10:10:49;6.10;99.90
51035;DHT22;37062;52.546;13.230;2022-12-07T10:13:19;6.00;99.90
51035;DHT22;37062;52.546;13.230;2022-12-07T10:15:50;6.00;99.90
51035;DHT22;37062;52.546;13.230;2022-12-07T10:18:26;6.10;99.90
51035;DHT22;37062;52.546;13.230;2022-12-07T10:21:02;6.10;99.90
51035;DHT22;37062;52.546;13.230;2022-12-07T10:23:30;6.30;99.90
51035;DHT22;37062;52.546;13.230;2022-12-07T10:25:57;6.20;99.90
51035;DHT22;37062;52.546;13.230;2022-12-07T10:28:34;6.20;99.90
51035;DHT22;37062;52.546;13.230;2022-12-07T10:31:16;6.30;99.90
51035;DHT22;37062;52.546;13.230;2022-12-07T10:33:50;6.40;99.90
51035;DHT22;37062;52.546;13.230;2022-12-07T10:36:23;6.40;99.90
51035;DHT22;37062;52.546;13.230;2022-12-07T10:38:52;6.40;99.90
51035;DHT22;37062;52.546;13.230;2022-12-07T10:41:25;6.40;99.90
51035;DHT22;37062;52.546;13.230;2022-12-07T10:43:53;6.50;99.90
51035;DHT22;37062;52.546;13.230;2022-12-07T10:46:40;6.50;99.90
51035;DHT22;37062;52.546;13.230;2022-12-07T10:49:32;6.60;99.90
51035;DHT22;37062;52.546;13.230;2022-12-07T10:52:14;6.70;99.90
51035;DHT22;37062;52.546;13.230;2022-12-07T10:54:51;6.70;99.90
51035;DHT22;37062;52.546;13.230;2022-12-07T10:57:30;6.70;99.90
51035;DHT22;37062;52.546;13.230;2022-12-07T11:00:09;6.70;99.90
51035;DHT22;37062;52.546;13.230;2022-12-07T11:03:03;6.70;99.90
51035;DHT22;37062;52.546;13.230;2022-12-07T11:05:41;6.80;99.90
51035;DHT22;37062;52.546;13.230;2022-12-07T11:08:20;6.90;99.90
51035;DHT22;37062;52.546;13.230;2022-12-07T11:10:54;6.90;99.90
51035;DHT22;37062;52.546;13.230;2022-12-07T11:13:28;6.80;99.90
51035;DHT22;37062;52.546;13.230;2022-12-07T11:16:12;6.90;99.90
51035;DHT22;37062;52.546;13.230;2022-12-07T11:18:51;7.00;99.90
51035;DHT22;37062;52.546;13.230;2022-12-07T11:21:25;7.00;99.90
51035;DHT22;37062;52.546;13.230;2022-12-07T11:24:00;7.00;99.90
51035;DHT22;37062;52.546;13.230;2022-12-07T11:26:40;6.90;99.90
51035;DHT22;37062;52.546;13.230;2022-12-07T11:29:34;7.00;99.90
51035;DHT22;37062;52.546;13.230;2022-12-07T11:32:15;7.10;99.90
51035;DHT22;37062;52.546;13.230;2022-12-07T11:34:55;7.10;99.90
51035;DHT22;37062;52.546;13.230;2022-12-07T11:37:30;7.20;99.90
51035;DHT22;37062;52.546;13.230;2022-12-07T11:40:03;7.20;99.90
51035;DHT22;37062;52.546;13.230;2022-12-07T11:42:35;7.20;99.90
51035;DHT22;37062;52.546;13.230;2022-12-07T11:45:13;7.30;99.90
51035;DHT22;37062;52.546;13.230;2022-12-07T11:47:46;7.30;99.90
51035;DHT22;37062;52.546;13.230;2022-12-07T11:50:27;7.30;99.90
51035;DHT22;37062;52.546;13.230;2022-12-07T11:52:59;7.40;99.90
51035;DHT22;37062;52.546;13.230;2022-12-07T11:55:32;7.50;99.90
51035;DHT22;37062;52.546;13.230;2022-12-07T11:58:20;7.50;99.90
51035;DHT22;37062;52.546;13.230;2022-12-07T12:00:51;7.60;99.90
51035;DHT22;37062;52.546;13.230;2022-12-07T12:03:28;7.60;99.90
51035;DHT22;37062;52.546;13.230;2022-12-07T12:05:59;7.60;99.90
51035;DHT22;37062;52.546;13.230;2022-12-07T12:08:29;7.60;99.90
51035;DHT22;37062;52.546;13.230;2022-12-07T12:11:02;7.60;99.90
51035;DHT22;37062;52.546;13.230;2022-12-07T12:14:01;7.70;99.90
51035;DHT22;37062;52.546;13.230;2022-12-07T12:19:34;7.70;99.90
51035;DHT22;37062;52.546;13.230;2022-12-07T12:22:11;7.70;99.90
51035;DHT22;37062;52.546;13.230;2022-12-07T12:24:40;7.80;99.90
51035;DHT22;37062;52.546;13.230;2022-12-07T12:27:14;7.80;99.90
51035;DHT22;37062;52.546;13.230;2022-12-07T12:29:43;7.70;99.90
51035;DHT22;37062;52.546;13.230;2022-12-07T12:32:16;7.70;99.90
51035;DHT22;37062;52.546;13.230;2022-12-07T12:34:59;7.70;99.90
51035;DHT22;37062;52.546;13.230;2022-12-07T12:37:44;7.70;99.90
51035;DHT22;37062;52.546;13.230;2022-12-07T12:43:43;7.70;99.90
51035;DHT22;37062;52.546;13.230;2022-12-07T12:46:37;7.60;99.90
51035;DHT22;37062;52.546;13.230;2022-12-07T12:58:46;7.50;99.90
51035;DHT22;37062;52.546;13.230;2022-12-07T13:01:44;7.50;99.90
51035;DHT22;37062;52.546;13.230;2022-12-07T13:04:28;7.50;99.90
51035;DHT22;37062;52.546;13.230;2022-12-07T13:06:56;7.50;99.90
51035;DHT22;37062;52.546;13.230;2022-12-07T13:09:26;7.50;99.90
51035;DHT22;37062;52.546;13.230;2022-12-07T13:12:01;7.50;99.90
51035;DHT22;37062;52.546;13.230;2022-12-07T13:14:57;7.50;99.90
51035;DHT22;37062;52.546;13.230;2022-12-07T13:17:56;7.50;99.90
51035;DHT22;37062;52.546;13.230;2022-12-07T13:20:44;7.60;99.90
51035;DHT22;37062;52.546;13.230;2022-12-07T13:23:12;7.50;99.90
51035;DHT22;37062;52.546;13.230;2022-12-07T13:25:55;7.50;99.90
51035;DHT22;37062;52.546;13.230;2022-12-07T13:28:27;7.50;99.90
51035;DHT22;37062;52.546;13.230;2022-12-07T13:31:08;7.60;99.90
51035;DHT22;37062;52.546;13.230;2022-12-07T13:33:37;7.50;99.90
51035;DHT22;37062;52.546;13.230;2022-12-07T13:36:08;7.50;99.90
51035;DHT22;37062;52.546;13.230;2022-12-07T13:38:48;7.50;99.90
51035;DHT22;37062;52.546;13.230;2022-12-07T13:41:17;7.50;99.90
51035;DHT22;37062;52.546;13.230;2022-12-07T13:43:51;7.50;99.90
51035;DHT22;37062;52.546;13.230;2022-12-07T13:46:25;7.50;99.90
51035;DHT22;37062;52.546;13.230;2022-12-07T13:48:53;7.50;99.90
51035;DHT22;37062;52.546;13.230;2022-12-07T13:51:23;7.50;99.90
51035;DHT22;37062;52.546;13.230;2022-12-07T13:53:53;7.50;99.90
51035;DHT22;37062;52.546;13.230;2022-12-07T13:56:27;7.50;99.90
51035;DHT22;37062;52.546;13.230;2022-12-07T13:58:55;7.50;99.90
51035;DHT22;37062;52.546;13.230;2022-12-07T14:01:24;7.50;99.90
51035;DHT22;37062;52.546;13.230;2022-12-07T14:03:51;7.50;99.90
51035;DHT22;37062;52.546;13.230;2022-12-07T14:06:24;7.40;99.90
51035;DHT22;37062;52.546;13.230;2022-12-07T14:09:18;7.40;99.90
51035;DHT22;37062;52.546;13.230;2022-12-07T14:11:46;7.40;99.90
51035;DHT22;37062;52.546;13.230;2022-12-07T14:14:18;7.40;99.90
51035;DHT22;37062;52.546;13.230;2022-12-07T14:17:00;7.40;99.90
51035;DHT22;37062;52.546;13.230;2022-12-07T14:19:46;7.40;99.90
51035;DHT22;37062;52.546;13.230;2022-12-07T14:22:29;7.40;99.90
51035;DHT22;37062;52.546;13.230;2022-12-07T14:25:02;7.40;99.90
51035;DHT22;37062;52.546;13.230;2022-12-07T14:27:38;7.40;99.90
51035;DHT22;37062;52.546;13.230;2022-12-07T14:30:15;7.30;99.90
51035;DHT22;37062;52.546;13.230;2022-12-07T14:32:44;7.30;99.90
51035;DHT22;37062;52.546;13.230;2022-12-07T14:35:15;7.30;99.90
51035;DHT22;37062;52.546;13.230;2022-12-07T14:37:44;7.30;99.90
51035;DHT22;37062;52.546;13.230;2022-12-07T14:40:13;7.20;99.90
51035;DHT22;37062;52.546;13.230;2022-12-07T14:42:41;7.20;99.90
51035;DHT22;37062;52.546;13.230;2022-12-07T14:45:13;7.10;99.90
51035;DHT22;37062;52.546;13.230;2022-12-07T14:47:41;7.00;99.90
51035;DHT22;37062;52.546;13.230;2022-12-07T14:50:11;7.00;99.90
51035;DHT22;37062;52.546;13.230;2022-12-07T14:52:39;6.90;99.90
51035;DHT22;37062;52.546;13.230;2022-12-07T14:55:13;7.00;99.90
51035;DHT22;37062;52.546;13.230;2022-12-07T14:57:41;6.90;99.90
51035;DHT22;37062;52.546;13.230;2022-12-07T15:00:12;6.90;99.90
51035;DHT22;37062;52.546;13.230;2022-12-07T15:02:40;6.80;99.90
51035;DHT22;37062;52.546;13.230;2022-12-07T15:05:07;6.70;99.90
51035;DHT22;37062;52.546;13.230;2022-12-07T15:07:36;6.70;99.90
51035;DHT22;37062;52.546;13.230;2022-12-07T15:10:04;6.60;99.90
51035;DHT22;37062;52.546;13.230;2022-12-07T15:12:32;6.60;99.90
51035;DHT22;37062;52.546;13.230;2022-12-07T15:14:59;6.60;99.90
51035;DHT22;37062;52.546;13.230;2022-12-07T15:17:27;6.50;99.90
51035;DHT22;37062;52.546;13.230;2022-12-07T15:19:54;6.50;99.90
51035;DHT22;37062;52.546;13.230;2022-12-07T15:22:21;6.50;99.90
51035;DHT22;37062;52.546;13.230;2022-12-07T15:24:50;6.40;99.90
51035;DHT22;37062;52.546;13.230;2022-12-07T15:27:16;6.40;99.90
51035;DHT22;37062;52.546;13.230;2022-12-07T15:29:44;6.40;99.90
51035;DHT22;37062;52.546;13.230;2022-12-07T15:32:10;6.40;99.90
51035;DHT22;37062;52.546;13.230;2022-12-07T15:34:37;6.40;99.90
51035;DHT22;37062;52.546;13.230;2022-12-07T15:37:05;6.50;99.90
51035;DHT22;37062;52.546;13.230;2022-12-07T15:39:33;6.50;99.90
51035;DHT22;37062;52.546;13.230;2022-12-07T15:42:01;6.50;99.90
51035;DHT22;37062;52.546;13.230;2022-12-07T15:44:28;6.50;99.90
51035;DHT22;37062;52.546;13.230;2022-12-07T15:47:27;6.50;99.90
51035;DHT22;37062;52.546;13.230;2022-12-07T15:49:54;6.50;99.90
51035;DHT22;37062;52.546;13.230;2022-12-07T15:52:21;6.50;99.90
51035;DHT22;37062;52.546;13.230;2022-12-07T15:54:48;6.50;99.90
51035;DHT22;37062;52.546;13.230;2022-12-07T15:57:17;6.50;99.90
51035;DHT22;37062;52.546;13.230;2022-12-07T15:59:44;6.40;99.90
51035;DHT22;37062;52.546;13.230;2022-12-07T16:02:11;6.40;99.90
51035;DHT22;37062;52.546;13.230;2022-12-07T16:04:38;6.30;99.90
51035;DHT22;37062;52.546;13.230;2022-12-07T16:07:05;6.30;99.90
51035;DHT22;37062;52.546;13.230;2022-12-07T16:09:32;6.20;99.90